Time;durP1;ratioP1;P1;durP2;ratioP2;P2;SDS_P1;SDS_P2;PMS_P1;PMS_P2;Temp;Humidity;BMP_temperature;BMP_pressure;BME280_temperature;BME280_humidity;BME280_pressure;Samples;Min_cycle;Max_cycle;Signal;HPM_P1;HPM_P2
2021/01/17 19:06:59;;;;;;;;;;;20.80;83.30;;;;;;5115917;27;19908;-79
2021/01/17 19:09:25;;;;;;;;;;;20.20;85.30;;;;;;5113358;28;20400;-77
2021/01/17 19:11:53;;;;;;;;;;;20.00;86.00;;;;;;5110289;28;19946;-76
2021/01/17 19:14:19;;;;;;;;;;;19.80;86.30;;;;;;5106805;27;95047;-77
2021/01/17 19:16:50;;;;;;;;;;;19.70;86.60;;;;;;5113846;28;19920;-80
2021/01/17 19:19:16;;;;;;;;;;;19.60;87.00;;;;;;5117584;28;19920;-79
2021/01/17 19:21:45;;;;;;;;;;;19.50;86.90;;;;;;5117668;28;19920;-80
2021/01/17 19:24:12;;;;;;;;;;;19.40;87.00;;;;;;5117654;28;20506;-80
2021/01/17 19:26:38;;;;;;;;;;;19.30;86.90;;;;;;5115412;28;19920;-79
2021/01/17 19:29:04;;;;;;;;;;;19.20;86.80;;;;;;5115999;28;20399;-80
2021/01/17 19:31:30;;;;;;;;;;;19.10;86.80;;;;;;5118208;28;19920;-77
2021/01/17 19:33:58;;;;;;;;;;;19.00;86.80;;;;;;5117477;28;19927;-80
2021/01/17 19:36:24;;;;;;;;;;;19.00;86.90;;;;;;5116625;28;19923;-80
2021/01/17 19:38:50;;;;;;;;;;;18.90;86.90;;;;;;5117086;28;19928;-80
2021/01/17 19:41:17;;;;;;;;;;;18.90;87.00;;;;;;5117398;28;19942;-80
2021/01/17 19:43:43;;;;;;;;;;;18.90;87.10;;;;;;5113618;28;19920;-79
2021/01/17 19:46:12;;;;;;;;;;;18.80;87.10;;;;;;5116233;28;19920;-80
2021/01/17 19:48:38;;;;;;;;;;;18.80;87.20;;;;;;5115621;28;20295;-78
2021/01/17 19:51:04;;;;;;;;;;;18.80;87.10;;;;;;5116605;28;19920;-78
2021/01/17 19:53:31;;;;;;;;;;;18.80;87.20;;;;;;5116834;28;19920;-81
2021/01/17 19:55:57;;;;;;;;;;;18.80;87.20;;;;;;5115603;28;19920;-81
2021/01/17 19:58:24;;;;;;;;;;;18.70;87.10;;;;;;5115227;28;19920;-80
2021/01/17 20:00:50;;;;;;;;;;;18.70;87.10;;;;;;5115352;28;19922;-80
2021/01/17 20:03:16;;;;;;;;;;;18.70;87.10;;;;;;5115083;28;19927;-80
2021/01/17 20:05:42;;;;;;;;;;;18.70;87.10;;;;;;5115408;28;19941;-79
2021/01/17 20:08:08;;;;;;;;;;;18.70;87.20;;;;;;5114146;28;20368;-81
2021/01/17 20:10:34;;;;;;;;;;;18.70;87.90;;;;;;5114633;28;19952;-80
2021/01/17 20:13:00;;;;;;;;;;;18.70;87.10;;;;;;5112712;28;19920;-80
2021/01/17 20:15:27;;;;;;;;;;;18.70;87.10;;;;;;5114361;28;20303;-81
2021/01/17 20:17:53;;;;;;;;;;;18.70;87.10;;;;;;5101642;28;20253;-78
2021/01/17 20:20:20;;;;;;;;;;;18.60;87.10;;;;;;5100887;28;19974;-78
2021/01/17 20:22:46;;;;;;;;;;;18.60;87.10;;;;;;5099346;28;20372;-80
2021/01/17 20:25:12;;;;;;;;;;;18.60;87.00;;;;;;5099897;28;20287;-80
2021/01/17 20:30:08;;;;;;;;;;;18.60;87.10;;;;;;5012877;28;20301;-74
2021/01/17 20:32:35;;;;;;;;;;;18.60;87.10;;;;;;5010900;28;19926;-74
2021/01/17 20:35:01;;;;;;;;;;;18.60;87.00;;;;;;4995009;28;19929;-75
2021/01/17 20:37:27;;;;;;;;;;;18.60;86.90;;;;;;4995262;28;19948;-74
2021/01/17 20:39:54;;;;;;;;;;;18.60;87.00;;;;;;4995233;28;19925;-75
2021/01/17 20:42:20;;;;;;;;;;;18.60;87.00;;;;;;4994599;28;19949;-75
2021/01/17 20:44:48;;;;;;;;;;;18.60;86.90;;;;;;4995097;28;19933;-76
2021/01/17 20:47:14;;;;;;;;;;;18.60;86.90;;;;;;4993579;28;20593;-75
2021/01/17 20:49:41;;;;;;;;;;;18.60;86.90;;;;;;4995163;28;19922;-76
2021/01/17 20:52:07;;;;;;;;;;;18.60;87.00;;;;;;4994484;28;19922;-75
2021/01/17 20:54:34;;;;;;;;;;;18.60;87.00;;;;;;4994859;28;19929;-74
2021/01/17 20:57:00;;;;;;;;;;;18.60;86.90;;;;;;4994918;28;19949;-74
2021/01/17 20:59:26;;;;;;;;;;;18.60;86.90;;;;;;4994848;28;20384;-75
2021/01/17 21:01:52;;;;;;;;;;;18.60;86.90;;;;;;4993953;28;19929;-75
2021/01/17 21:04:18;;;;;;;;;;;18.60;86.90;;;;;;4995193;28;19922;-75
2021/01/17 21:06:45;;;;;;;;;;;18.60;86.80;;;;;;4994783;28;19922;-76
2021/01/17 21:09:11;;;;;;;;;;;18.60;85.70;;;;;;4994544;28;19980;-76
2021/01/17 21:11:37;;;;;;;;;;;18.50;84.90;;;;;;4993734;28;20382;-75
2021/01/17 21:14:03;;;;;;;;;;;18.50;84.70;;;;;;4994740;28;19922;-76
2021/01/17 21:16:29;;;;;;;;;;;18.50;84.60;;;;;;4994657;28;19972;-74
2021/01/17 21:18:55;;;;;;;;;;;18.50;84.40;;;;;;4994624;28;20012;-76
2021/01/17 21:21:22;;;;;;;;;;;18.40;84.20;;;;;;4993756;28;20398;-74
2021/01/17 21:23:49;;;;;;;;;;;18.40;84.30;;;;;;4994371;28;19922;-75
2021/01/17 21:26:17;;;;;;;;;;;18.40;84.50;;;;;;4994368;28;19929;-77
2021/01/17 21:28:43;;;;;;;;;;;18.40;85.40;;;;;;4993222;28;19922;-76
2021/01/17 21:31:11;;;;;;;;;;;18.40;85.60;;;;;;5003148;28;19921;-78
2021/01/17 21:33:38;;;;;;;;;;;18.40;86.10;;;;;;5033435;28;19921;-77
2021/01/17 21:36:04;;;;;;;;;;;18.40;86.90;;;;;;5033990;28;19921;-75
2021/01/17 21:38:30;;;;;;;;;;;18.40;86.30;;;;;;5033703;28;19928;-75
2021/01/17 21:40:57;;;;;;;;;;;18.40;86.20;;;;;;5033387;28;19921;-76
2021/01/17 21:43:23;;;;;;;;;;;18.40;86.10;;;;;;5030183;28;20413;-79
2021/01/17 21:45:49;;;;;;;;;;;18.40;86.10;;;;;;5035509;28;20468;-78
2021/01/17 21:48:15;;;;;;;;;;;18.40;86.10;;;;;;5035171;28;19921;-76
2021/01/17 21:50:41;;;;;;;;;;;18.40;86.40;;;;;;5033103;28;19925;-76
2021/01/17 21:53:07;;;;;;;;;;;18.40;86.20;;;;;;5032004;28;20296;-79
2021/01/17 21:55:33;;;;;;;;;;;18.40;86.60;;;;;;5034526;28;19948;-77
2021/01/17 21:58:01;;;;;;;;;;;18.40;87.10;;;;;;5020023;28;20314;-77
2021/01/17 22:00:27;;;;;;;;;;;18.30;87.30;;;;;;5013070;28;20443;-77
2021/01/17 22:02:56;;;;;;;;;;;18.30;87.10;;;;;;5011376;28;20374;-76
2021/01/17 22:05:23;;;;;;;;;;;18.30;87.60;;;;;;5022427;28;20340;-77
